<?xml version="1.0" encoding="UTF-8" standalone="no" ?>
<gpx xmlns="http://www.topografix.com/GPX/1/1" xmlns:xsi="http://www.w3.org/2001/XMLSchema-instance" xsi:schemaLocation="http://www.topografix.com/GPX/1/1 http://www.topografix.com/GPX/1/1/gpx.xsd" version="1.1" creator="VisuGPX - https://www.visugpx.com">
  <metadata>
    <name>Trek au Ladakh</name>
    <desc><![CDATA[Trek au Ladakh - Septembre 2015]]></desc>
  </metadata>
  <trk>
    <name><![CDATA[Camp de Korzog (4630m) et ballade autour du lac de Tso Moriri (4550m)]]></name>
    <trkseg>
      <trkpt lat="32.94957" lon="78.27139">
        <ele>4568.2</ele>
        <time>2015-09-08T08:42:09Z</time>
      </trkpt>
      <trkpt lat="32.94953" lon="78.27138">
        <ele>4569.4</ele>
        <time>2015-09-08T08:42:13Z</time>
      </trkpt>
      <trkpt lat="32.94941" lon="78.27133">
        <ele>4570.6</ele>
        <time>2015-09-08T08:42:31Z</time>
      </trkpt>
      <trkpt lat="32.94935" lon="78.27128">
        <ele>4571.2</ele>
        <time>2015-09-08T08:42:46Z</time>
      </trkpt>
      <trkpt lat="32.94934" lon="78.27129">
        <ele>4571.6</ele>
        <time>2015-09-08T08:42:48Z</time>
      </trkpt>
      <trkpt lat="32.94931" lon="78.27131">
        <ele>4573</ele>
        <time>2015-09-08T08:42:51Z</time>
      </trkpt>
      <trkpt lat="32.94926" lon="78.27132">
        <ele>4574</ele>
        <time>2015-09-08T08:42:57Z</time>
      </trkpt>
      <trkpt lat="32.94921" lon="78.27136">
        <ele>4574.6</ele>
        <time>2015-09-08T08:43:01Z</time>
      </trkpt>
      <trkpt lat="32.94919" lon="78.27138">
        <ele>4575</ele>
        <time>2015-09-08T08:43:05Z</time>
      </trkpt>
      <trkpt lat="32.94917" lon="78.27142">
        <ele>4575.2</ele>
        <time>2015-09-08T08:43:06Z</time>
      </trkpt>
      <trkpt lat="32.94914" lon="78.27143">
        <ele>4575.2</ele>
        <time>2015-09-08T08:43:09Z</time>
      </trkpt>
      <trkpt lat="32.94912" lon="78.27142">
        <ele>4575.6</ele>
        <time>2015-09-08T08:43:12Z</time>
      </trkpt>
      <trkpt lat="32.94908" lon="78.27144">
        <ele>4576.2</ele>
        <time>2015-09-08T08:43:18Z</time>
      </trkpt>
      <trkpt lat="32.94904" lon="78.27142">
        <ele>4576.2</ele>
        <time>2015-09-08T08:43:24Z</time>
      </trkpt>
      <trkpt lat="32.94887" lon="78.27143">
        <ele>4576</ele>
        <time>2015-09-08T08:43:45Z</time>
      </trkpt>
      <trkpt lat="32.94881" lon="78.27148">
        <ele>4577.4</ele>
        <time>2015-09-08T08:43:54Z</time>
      </trkpt>
      <trkpt lat="32.94874" lon="78.27156">
        <ele>4578.4</ele>
        <time>2015-09-08T08:44:06Z</time>
      </trkpt>
      <trkpt lat="32.94871" lon="78.27156">
        <ele>4579.6</ele>
        <time>2015-09-08T08:44:11Z</time>
      </trkpt>
      <trkpt lat="32.94862" lon="78.27156">
        <ele>4580.6</ele>
        <time>2015-09-08T08:44:21Z</time>
      </trkpt>
      <trkpt lat="32.94858" lon="78.27156">
        <ele>4581.2</ele>
        <time>2015-09-08T08:44:26Z</time>
      </trkpt>
      <trkpt lat="32.94857" lon="78.27156">
        <ele>4581.4</ele>
        <time>2015-09-08T08:44:28Z</time>
      </trkpt>
      <trkpt lat="32.94855" lon="78.27156">
        <ele>4582</ele>
        <time>2015-09-08T08:44:30Z</time>
      </trkpt>
      <trkpt lat="32.94838" lon="78.27162">
        <ele>4582</ele>
        <time>2015-09-08T08:44:56Z</time>
      </trkpt>
      <trkpt lat="32.94833" lon="78.27165">
        <ele>4583.2</ele>
        <time>2015-09-08T08:45:05Z</time>
      </trkpt>
      <trkpt lat="32.94817" lon="78.27173">
        <ele>4584</ele>
        <time>2015-09-08T08:45:24Z</time>
      </trkpt>
      <trkpt lat="32.94816" lon="78.27172">
        <ele>4584.2</ele>
        <time>2015-09-08T08:45:25Z</time>
      </trkpt>
      <trkpt lat="32.94813" lon="78.27169">
        <ele>4585.2</ele>
        <time>2015-09-08T08:45:39Z</time>
      </trkpt>
      <trkpt lat="32.94811" lon="78.27171">
        <ele>4586.4</ele>
        <time>2015-09-08T08:45:52Z</time>
      </trkpt>
      <trkpt lat="32.94811" lon="78.27171">
        <ele>4587.6</ele>
        <time>2015-09-08T08:45:55Z</time>
      </trkpt>
      <trkpt lat="32.94806" lon="78.27169">
        <ele>4586.4</ele>
        <time>2015-09-08T08:46:06Z</time>
      </trkpt>
      <trkpt lat="32.94801" lon="78.27167">
        <ele>4587.4</ele>
        <time>2015-09-08T08:46:13Z</time>
      </trkpt>
      <trkpt lat="32.94796" lon="78.2717">
        <ele>4586.2</ele>
        <time>2015-09-08T08:46:18Z</time>
      </trkpt>
      <trkpt lat="32.94792" lon="78.27171">
        <ele>4587.2</ele>
        <time>2015-09-08T08:46:32Z</time>
      </trkpt>
      <trkpt lat="32.94788" lon="78.27168">
        <ele>4588.4</ele>
        <time>2015-09-08T08:46:42Z</time>
      </trkpt>
      <trkpt lat="32.94783" lon="78.27168">
        <ele>4589.4</ele>
        <time>2015-09-08T08:46:53Z</time>
      </trkpt>
      <trkpt lat="32.94776" lon="78.27173">
        <ele>4589.8</ele>
        <time>2015-09-08T08:47:04Z</time>
      </trkpt>
      <trkpt lat="32.94772" lon="78.27173">
        <ele>4589.2</ele>
        <time>2015-09-08T08:47:07Z</time>
      </trkpt>
      <trkpt lat="32.9477" lon="78.27174">
        <ele>4588.2</ele>
        <time>2015-09-08T08:47:09Z</time>
      </trkpt>
      <trkpt lat="32.94768" lon="78.27176">
        <ele>4587</ele>
        <time>2015-09-08T08:47:12Z</time>
      </trkpt>
      <trkpt lat="32.94765" lon="78.27177">
        <ele>4586.8</ele>
        <time>2015-09-08T08:47:15Z</time>
      </trkpt>
      <trkpt lat="32.94764" lon="78.27179">
        <ele>4587</ele>
        <time>2015-09-08T08:47:17Z</time>
      </trkpt>
      <trkpt lat="32.94763" lon="78.27181">
        <ele>4587.8</ele>
        <time>2015-09-08T08:47:19Z</time>
      </trkpt>
      <trkpt lat="32.94763" lon="78.27182">
        <ele>4588.4</ele>
        <time>2015-09-08T08:47:21Z</time>
      </trkpt>
      <trkpt lat="32.94761" lon="78.27183">
        <ele>4589.4</ele>
        <time>2015-09-08T08:47:24Z</time>
      </trkpt>
      <trkpt lat="32.9476" lon="78.27182">
        <ele>4588.4</ele>
        <time>2015-09-08T08:47:40Z</time>
      </trkpt>
      <trkpt lat="32.94759" lon="78.27181">
        <ele>4587</ele>
        <time>2015-09-08T08:47:43Z</time>
      </trkpt>
      <trkpt lat="32.94759" lon="78.2718">
        <ele>4586</ele>
        <time>2015-09-08T08:47:45Z</time>
      </trkpt>
      <trkpt lat="32.94762" lon="78.2718">
        <ele>4587.4</ele>
        <time>2015-09-08T08:47:50Z</time>
      </trkpt>
      <trkpt lat="32.9476" lon="78.27179">
        <ele>4586.4</ele>
        <time>2015-09-08T08:47:59Z</time>
      </trkpt>
      <trkpt lat="32.94761" lon="78.27179">
        <ele>4587.4</ele>
        <time>2015-09-08T08:48:03Z</time>
      </trkpt>
      <trkpt lat="32.94764" lon="78.27177">
        <ele>4588.4</ele>
        <time>2015-09-08T08:48:12Z</time>
      </trkpt>
      <trkpt lat="32.94766" lon="78.27177">
        <ele>4589.6</ele>
        <time>2015-09-08T08:48:18Z</time>
      </trkpt>
      <trkpt lat="32.9478" lon="78.27172">
        <ele>4588.4</ele>
        <time>2015-09-08T08:48:59Z</time>
      </trkpt>
      <trkpt lat="32.9478" lon="78.27174">
        <ele>4589.6</ele>
        <time>2015-09-08T08:49:22Z</time>
      </trkpt>
      <trkpt lat="32.9478" lon="78.27175">
        <ele>4588.4</ele>
        <time>2015-09-08T08:49:39Z</time>
      </trkpt>
      <trkpt lat="32.9478" lon="78.27176">
        <ele>4589.4</ele>
        <time>2015-09-08T08:50:03Z</time>
      </trkpt>
      <trkpt lat="32.94785" lon="78.27176">
        <ele>4590.4</ele>
        <time>2015-09-08T08:53:23Z</time>
      </trkpt>
      <trkpt lat="32.94785" lon="78.27176">
        <ele>4590.4</ele>
        <time>2015-09-08T08:53:24Z</time>
      </trkpt>
      <trkpt lat="32.94783" lon="78.27175">
        <ele>4591.6</ele>
        <time>2015-09-08T08:54:21Z</time>
      </trkpt>
      <trkpt lat="32.94783" lon="78.27175">
        <ele>4592.8</ele>
        <time>2015-09-08T08:54:25Z</time>
      </trkpt>
      <trkpt lat="32.94782" lon="78.27175">
        <ele>4594</ele>
        <time>2015-09-08T08:54:33Z</time>
      </trkpt>
      <trkpt lat="32.94782" lon="78.27174">
        <ele>4595</ele>
        <time>2015-09-08T08:54:37Z</time>
      </trkpt>
      <trkpt lat="32.94782" lon="78.27174">
        <ele>4593.8</ele>
        <time>2015-09-08T08:54:46Z</time>
      </trkpt>
      <trkpt lat="32.94782" lon="78.27175">
        <ele>4592.6</ele>
        <time>2015-09-08T08:54:51Z</time>
      </trkpt>
      <trkpt lat="32.94782" lon="78.27175">
        <ele>4591.4</ele>
        <time>2015-09-08T08:55:32Z</time>
      </trkpt>
      <trkpt lat="32.94785" lon="78.27174">
        <ele>4590.4</ele>
        <time>2015-09-08T08:55:39Z</time>
      </trkpt>
      <trkpt lat="32.94786" lon="78.27174">
        <ele>4591.4</ele>
        <time>2015-09-08T08:56:07Z</time>
      </trkpt>
      <trkpt lat="32.94783" lon="78.27176">
        <ele>4590.4</ele>
        <time>2015-09-08T08:56:54Z</time>
      </trkpt>
      <trkpt lat="32.94784" lon="78.27177">
        <ele>4589.4</ele>
        <time>2015-09-08T08:57:22Z</time>
      </trkpt>
      <trkpt lat="32.9478" lon="78.27176">
        <ele>4590.4</ele>
        <time>2015-09-08T08:59:02Z</time>
      </trkpt>
      <trkpt lat="32.9478" lon="78.27176">
        <ele>4591.4</ele>
        <time>2015-09-08T08:59:21Z</time>
      </trkpt>
      <trkpt lat="32.9478" lon="78.27175">
        <ele>4592.6</ele>
        <time>2015-09-08T08:59:35Z</time>
      </trkpt>
      <trkpt lat="32.9478" lon="78.27175">
        <ele>4593.8</ele>
        <time>2015-09-08T08:59:39Z</time>
      </trkpt>
      <trkpt lat="32.9478" lon="78.27176">
        <ele>4595.2</ele>
        <time>2015-09-08T08:59:51Z</time>
      </trkpt>
      <trkpt lat="32.9478" lon="78.27176">
        <ele>4596.4</ele>
        <time>2015-09-08T08:59:54Z</time>
      </trkpt>
      <trkpt lat="32.9478" lon="78.27176">
        <ele>4595</ele>
        <time>2015-09-08T09:00:01Z</time>
      </trkpt>
      <trkpt lat="32.9478" lon="78.27176">
        <ele>4593.6</ele>
        <time>2015-09-08T09:00:03Z</time>
      </trkpt>
      <trkpt lat="32.94779" lon="78.27176">
        <ele>4592.6</ele>
        <time>2015-09-08T09:00:32Z</time>
      </trkpt>
      <trkpt lat="32.94779" lon="78.27176">
        <ele>4592.6</ele>
        <time>2015-09-08T09:00:36Z</time>
      </trkpt>
      <trkpt lat="32.94779" lon="78.27176">
        <ele>4593.8</ele>
        <time>2015-09-08T09:01:01Z</time>
      </trkpt>
      <trkpt lat="32.94779" lon="78.27176">
        <ele>4594.8</ele>
        <time>2015-09-08T09:01:12Z</time>
      </trkpt>
      <trkpt lat="32.9478" lon="78.27175">
        <ele>4593.8</ele>
        <time>2015-09-08T09:01:28Z</time>
      </trkpt>
      <trkpt lat="32.9478" lon="78.27176">
        <ele>4592.8</ele>
        <time>2015-09-08T09:01:44Z</time>
      </trkpt>
      <trkpt lat="32.94778" lon="78.27176">
        <ele>4593.8</ele>
        <time>2015-09-08T09:02:19Z</time>
      </trkpt>
      <trkpt lat="32.9477" lon="78.27175">
        <ele>4592.8</ele>
        <time>2015-09-08T09:02:34Z</time>
      </trkpt>
      <trkpt lat="32.94766" lon="78.27175">
        <ele>4591.6</ele>
        <time>2015-09-08T09:02:37Z</time>
      </trkpt>
      <trkpt lat="32.94765" lon="78.27175">
        <ele>4590.4</ele>
        <time>2015-09-08T09:02:39Z</time>
      </trkpt>
      <trkpt lat="32.94759" lon="78.27177">
        <ele>4589.4</ele>
        <time>2015-09-08T09:02:47Z</time>
      </trkpt>
      <trkpt lat="32.94754" lon="78.27177">
        <ele>4591.2</ele>
        <time>2015-09-08T09:02:53Z</time>
      </trkpt>
      <trkpt lat="32.94753" lon="78.27177">
        <ele>4592.2</ele>
        <time>2015-09-08T09:02:54Z</time>
      </trkpt>
      <trkpt lat="32.94747" lon="78.27178">
        <ele>4591</ele>
        <time>2015-09-08T09:03:01Z</time>
      </trkpt>
      <trkpt lat="32.94747" lon="78.27178">
        <ele>4590.4</ele>
        <time>2015-09-08T09:03:03Z</time>
      </trkpt>
      <trkpt lat="32.94747" lon="78.27178">
        <ele>4590</ele>
        <time>2015-09-08T09:03:04Z</time>
      </trkpt>
      <trkpt lat="32.94747" lon="78.27178">
        <ele>4589</ele>
        <time>2015-09-08T09:03:06Z</time>
      </trkpt>
      <trkpt lat="32.94752" lon="78.27179">
        <ele>4590</ele>
        <time>2015-09-08T09:03:17Z</time>
      </trkpt>
      <trkpt lat="32.94758" lon="78.2718">
        <ele>4591</ele>
        <time>2015-09-08T09:03:23Z</time>
      </trkpt>
      <trkpt lat="32.94764" lon="78.27178">
        <ele>4592.2</ele>
        <time>2015-09-08T09:03:31Z</time>
      </trkpt>
      <trkpt lat="32.94769" lon="78.27175">
        <ele>4593.4</ele>
        <time>2015-09-08T09:03:38Z</time>
      </trkpt>
      <trkpt lat="32.94773" lon="78.27174">
        <ele>4594.6</ele>
        <time>2015-09-08T09:03:43Z</time>
      </trkpt>
      <trkpt lat="32.94774" lon="78.27174">
        <ele>4595</ele>
        <time>2015-09-08T09:03:45Z</time>
      </trkpt>
      <trkpt lat="32.94777" lon="78.27173">
        <ele>4595</ele>
        <time>2015-09-08T09:03:48Z</time>
      </trkpt>
      <trkpt lat="32.94786" lon="78.27171">
        <ele>4593.6</ele>
        <time>2015-09-08T09:04:05Z</time>
      </trkpt>
      <trkpt lat="32.94794" lon="78.27167">
        <ele>4592.4</ele>
        <time>2015-09-08T09:04:15Z</time>
      </trkpt>
      <trkpt lat="32.94795" lon="78.27166">
        <ele>4592</ele>
        <time>2015-09-08T09:04:17Z</time>
      </trkpt>
      <trkpt lat="32.948" lon="78.27163">
        <ele>4591.2</ele>
        <time>2015-09-08T09:04:23Z</time>
      </trkpt>
      <trkpt lat="32.94806" lon="78.27161">
        <ele>4590.2</ele>
        <time>2015-09-08T09:04:31Z</time>
      </trkpt>
      <trkpt lat="32.9481" lon="78.27158">
        <ele>4589.6</ele>
        <time>2015-09-08T09:04:36Z</time>
      </trkpt>
      <trkpt lat="32.94811" lon="78.27157">
        <ele>4589</ele>
        <time>2015-09-08T09:04:38Z</time>
      </trkpt>
      <trkpt lat="32.94812" lon="78.27157">
        <ele>4588.8</ele>
        <time>2015-09-08T09:04:39Z</time>
      </trkpt>
      <trkpt lat="32.94816" lon="78.27156">
        <ele>4587.8</ele>
        <time>2015-09-08T09:04:44Z</time>
      </trkpt>
      <trkpt lat="32.9482" lon="78.27155">
        <ele>4587</ele>
        <time>2015-09-08T09:04:49Z</time>
      </trkpt>
      <trkpt lat="32.94823" lon="78.27156">
        <ele>4586.8</ele>
        <time>2015-09-08T09:04:51Z</time>
      </trkpt>
      <trkpt lat="32.94827" lon="78.2716">
        <ele>4585.8</ele>
        <time>2015-09-08T09:04:57Z</time>
      </trkpt>
      <trkpt lat="32.94828" lon="78.2716">
        <ele>4585.6</ele>
        <time>2015-09-08T09:04:58Z</time>
      </trkpt>
      <trkpt lat="32.94838" lon="78.27166">
        <ele>4584.6</ele>
        <time>2015-09-08T09:05:11Z</time>
      </trkpt>
      <trkpt lat="32.94844" lon="78.27172">
        <ele>4583.6</ele>
        <time>2015-09-08T09:05:20Z</time>
      </trkpt>
      <trkpt lat="32.94846" lon="78.27174">
        <ele>4583</ele>
        <time>2015-09-08T09:05:23Z</time>
      </trkpt>
      <trkpt lat="32.94848" lon="78.27177">
        <ele>4582.6</ele>
        <time>2015-09-08T09:05:27Z</time>
      </trkpt>
      <trkpt lat="32.94849" lon="78.27178">
        <ele>4582</ele>
        <time>2015-09-08T09:05:29Z</time>
      </trkpt>
      <trkpt lat="32.94849" lon="78.27179">
        <ele>4581.6</ele>
        <time>2015-09-08T09:05:31Z</time>
      </trkpt>
      <trkpt lat="32.94851" lon="78.27184">
        <ele>4580.6</ele>
        <time>2015-09-08T09:05:37Z</time>
      </trkpt>
      <trkpt lat="32.94854" lon="78.27189">
        <ele>4579.4</ele>
        <time>2015-09-08T09:05:44Z</time>
      </trkpt>
      <trkpt lat="32.94855" lon="78.2719">
        <ele>4579.4</ele>
        <time>2015-09-08T09:05:45Z</time>
      </trkpt>
      <trkpt lat="32.94859" lon="78.27192">
        <ele>4579.2</ele>
        <time>2015-09-08T09:05:50Z</time>
      </trkpt>
      <trkpt lat="32.94865" lon="78.27196">
        <ele>4578.2</ele>
        <time>2015-09-08T09:06:00Z</time>
      </trkpt>
      <trkpt lat="32.94868" lon="78.27198">
        <ele>4577</ele>
        <time>2015-09-08T09:06:04Z</time>
      </trkpt>
      <trkpt lat="32.9487" lon="78.272">
        <ele>4576</ele>
        <time>2015-09-08T09:06:07Z</time>
      </trkpt>
      <trkpt lat="32.94873" lon="78.27202">
        <ele>4574.8</ele>
        <time>2015-09-08T09:06:11Z</time>
      </trkpt>
      <trkpt lat="32.94876" lon="78.27204">
        <ele>4574</ele>
        <time>2015-09-08T09:06:15Z</time>
      </trkpt>
      <trkpt lat="32.94877" lon="78.27205">
        <ele>4573.8</ele>
        <time>2015-09-08T09:06:16Z</time>
      </trkpt>
      <trkpt lat="32.94878" lon="78.2721">
        <ele>4572.8</ele>
        <time>2015-09-08T09:06:21Z</time>
      </trkpt>
      <trkpt lat="32.9488" lon="78.27214">
        <ele>4571.8</ele>
        <time>2015-09-08T09:06:26Z</time>
      </trkpt>
      <trkpt lat="32.94883" lon="78.2722">
        <ele>4570.6</ele>
        <time>2015-09-08T09:06:31Z</time>
      </trkpt>
      <trkpt lat="32.94884" lon="78.27227">
        <ele>4570</ele>
        <time>2015-09-08T09:06:39Z</time>
      </trkpt>
      <trkpt lat="32.94882" lon="78.27229">
        <ele>4569.4</ele>
        <time>2015-09-08T09:06:42Z</time>
      </trkpt>
      <trkpt lat="32.94882" lon="78.27229">
        <ele>4568.8</ele>
        <time>2015-09-08T09:06:43Z</time>
      </trkpt>
      <trkpt lat="32.94881" lon="78.2723">
        <ele>4568</ele>
        <time>2015-09-08T09:06:45Z</time>
      </trkpt>
      <trkpt lat="32.94881" lon="78.2723">
        <ele>4567</ele>
        <time>2015-09-08T09:06:48Z</time>
      </trkpt>
      <trkpt lat="32.94884" lon="78.27231">
        <ele>4568</ele>
        <time>2015-09-08T09:06:59Z</time>
      </trkpt>
      <trkpt lat="32.94894" lon="78.27233">
        <ele>4567.2</ele>
        <time>2015-09-08T09:07:12Z</time>
      </trkpt>
      <trkpt lat="32.94896" lon="78.27234">
        <ele>4567</ele>
        <time>2015-09-08T09:07:14Z</time>
      </trkpt>
      <trkpt lat="32.94899" lon="78.27236">
        <ele>4565.8</ele>
        <time>2015-09-08T09:07:21Z</time>
      </trkpt>
      <trkpt lat="32.94906" lon="78.27235">
        <ele>4564.8</ele>
        <time>2015-09-08T09:07:30Z</time>
      </trkpt>
      <trkpt lat="32.9492" lon="78.2722">
        <ele>4565.6</ele>
        <time>2015-09-08T09:07:50Z</time>
      </trkpt>
      <trkpt lat="32.94922" lon="78.27219">
        <ele>4565.8</ele>
        <time>2015-09-08T09:07:52Z</time>
      </trkpt>
      <trkpt lat="32.94931" lon="78.27215">
        <ele>4566</ele>
        <time>2015-09-08T09:08:02Z</time>
      </trkpt>
      <trkpt lat="32.94936" lon="78.27212">
        <ele>4565.2</ele>
        <time>2015-09-08T09:08:11Z</time>
      </trkpt>
      <trkpt lat="32.94937" lon="78.27205">
        <ele>4564.8</ele>
        <time>2015-09-08T09:08:18Z</time>
      </trkpt>
      <trkpt lat="32.94938" lon="78.27203">
        <ele>4564.6</ele>
        <time>2015-09-08T09:08:20Z</time>
      </trkpt>
      <trkpt lat="32.94939" lon="78.27203">
        <ele>4564.4</ele>
        <time>2015-09-08T09:08:22Z</time>
      </trkpt>
      <trkpt lat="32.9494" lon="78.272">
        <ele>4563.8</ele>
        <time>2015-09-08T09:08:27Z</time>
      </trkpt>
      <trkpt lat="32.94944" lon="78.272">
        <ele>4562.6</ele>
        <time>2015-09-08T09:08:33Z</time>
      </trkpt>
      <trkpt lat="32.94948" lon="78.27199">
        <ele>4561.6</ele>
        <time>2015-09-08T09:08:39Z</time>
      </trkpt>
      <trkpt lat="32.9495" lon="78.27202">
        <ele>4560.6</ele>
        <time>2015-09-08T09:08:45Z</time>
      </trkpt>
      <trkpt lat="32.94952" lon="78.27204">
        <ele>4559.4</ele>
        <time>2015-09-08T09:08:50Z</time>
      </trkpt>
      <trkpt lat="32.94954" lon="78.27205">
        <ele>4558.4</ele>
        <time>2015-09-08T09:08:55Z</time>
      </trkpt>
      <trkpt lat="32.94958" lon="78.27204">
        <ele>4557.4</ele>
        <time>2015-09-08T09:09:02Z</time>
      </trkpt>
      <trkpt lat="32.94962" lon="78.27204">
        <ele>4556.4</ele>
        <time>2015-09-08T09:09:08Z</time>
      </trkpt>
      <trkpt lat="32.94966" lon="78.27206">
        <ele>4555.2</ele>
        <time>2015-09-08T09:09:14Z</time>
      </trkpt>
      <trkpt lat="32.94969" lon="78.2721">
        <ele>4554</ele>
        <time>2015-09-08T09:09:19Z</time>
      </trkpt>
      <trkpt lat="32.94976" lon="78.27211">
        <ele>4553</ele>
        <time>2015-09-08T09:09:27Z</time>
      </trkpt>
      <trkpt lat="32.9498" lon="78.27213">
        <ele>4553</ele>
        <time>2015-09-08T09:09:31Z</time>
      </trkpt>
      <trkpt lat="32.94986" lon="78.27211">
        <ele>4552</ele>
        <time>2015-09-08T09:09:37Z</time>
      </trkpt>
      <trkpt lat="32.9499" lon="78.27211">
        <ele>4551.8</ele>
        <time>2015-09-08T09:09:41Z</time>
      </trkpt>
      <trkpt lat="32.94991" lon="78.27211">
        <ele>4551.8</ele>
        <time>2015-09-08T09:09:43Z</time>
      </trkpt>
      <trkpt lat="32.95003" lon="78.27209">
        <ele>4551.8</ele>
        <time>2015-09-08T09:09:56Z</time>
      </trkpt>
      <trkpt lat="32.95006" lon="78.27211">
        <ele>4552.2</ele>
        <time>2015-09-08T09:10:00Z</time>
      </trkpt>
      <trkpt lat="32.9501" lon="78.27215">
        <ele>4551.8</ele>
        <time>2015-09-08T09:10:05Z</time>
      </trkpt>
      <trkpt lat="32.95012" lon="78.27216">
        <ele>4551.4</ele>
        <time>2015-09-08T09:10:08Z</time>
      </trkpt>
      <trkpt lat="32.95013" lon="78.27216">
        <ele>4551</ele>
        <time>2015-09-08T09:10:11Z</time>
      </trkpt>
      <trkpt lat="32.95014" lon="78.27219">
        <ele>4551</ele>
        <time>2015-09-08T09:10:23Z</time>
      </trkpt>
      <trkpt lat="32.95022" lon="78.27215">
        <ele>4550.8</ele>
        <time>2015-09-08T09:11:26Z</time>
      </trkpt>
      <trkpt lat="32.95023" lon="78.27215">
        <ele>4550.6</ele>
        <time>2015-09-08T09:11:27Z</time>
      </trkpt>
      <trkpt lat="32.9503" lon="78.27214">
        <ele>4550.6</ele>
        <time>2015-09-08T09:11:36Z</time>
      </trkpt>
      <trkpt lat="32.95047" lon="78.27206">
        <ele>4551</ele>
        <time>2015-09-08T09:12:10Z</time>
      </trkpt>
      <trkpt lat="32.95067" lon="78.27205">
        <ele>4552</ele>
        <time>2015-09-08T09:12:56Z</time>
      </trkpt>
      <trkpt lat="32.95083" lon="78.27194">
        <ele>4551.8</ele>
        <time>2015-09-08T09:13:27Z</time>
      </trkpt>
      <trkpt lat="32.95099" lon="78.27185">
        <ele>4551.6</ele>
        <time>2015-09-08T09:14:01Z</time>
      </trkpt>
      <trkpt lat="32.95115" lon="78.27176">
        <ele>4551.4</ele>
        <time>2015-09-08T09:14:27Z</time>
      </trkpt>
      <trkpt lat="32.95133" lon="78.27174">
        <ele>4551.6</ele>
        <time>2015-09-08T09:14:55Z</time>
      </trkpt>
      <trkpt lat="32.95151" lon="78.27169">
        <ele>4551.2</ele>
        <time>2015-09-08T09:15:28Z</time>
      </trkpt>
      <trkpt lat="32.95169" lon="78.27165">
        <ele>4553</ele>
        <time>2015-09-08T09:15:52Z</time>
      </trkpt>
      <trkpt lat="32.9517" lon="78.27165">
        <ele>4553</ele>
        <time>2015-09-08T09:15:53Z</time>
      </trkpt>
      <trkpt lat="32.95187" lon="78.2716">
        <ele>4553.2</ele>
        <time>2015-09-08T09:16:16Z</time>
      </trkpt>
      <trkpt lat="32.95193" lon="78.27155">
        <ele>4551.8</ele>
        <time>2015-09-08T09:16:26Z</time>
      </trkpt>
      <trkpt lat="32.9521" lon="78.27148">
        <ele>4551.4</ele>
        <time>2015-09-08T09:16:49Z</time>
      </trkpt>
      <trkpt lat="32.95228" lon="78.27143">
        <ele>4551.4</ele>
        <time>2015-09-08T09:17:17Z</time>
      </trkpt>
      <trkpt lat="32.95232" lon="78.27141">
        <ele>4551.6</ele>
        <time>2015-09-08T09:17:23Z</time>
      </trkpt>
      <trkpt lat="32.95247" lon="78.27139">
        <ele>4553.2</ele>
        <time>2015-09-08T09:17:46Z</time>
      </trkpt>
      <trkpt lat="32.95249" lon="78.27137">
        <ele>4554.4</ele>
        <time>2015-09-08T09:17:50Z</time>
      </trkpt>
      <trkpt lat="32.95259" lon="78.27132">
        <ele>4553.4</ele>
        <time>2015-09-08T09:18:03Z</time>
      </trkpt>
      <trkpt lat="32.95267" lon="78.2713">
        <ele>4554.4</ele>
        <time>2015-09-08T09:18:14Z</time>
      </trkpt>
      <trkpt lat="32.95269" lon="78.2713">
        <ele>4554.8</ele>
        <time>2015-09-08T09:18:17Z</time>
      </trkpt>
      <trkpt lat="32.95271" lon="78.27125">
        <ele>4555.4</ele>
        <time>2015-09-08T09:18:22Z</time>
      </trkpt>
      <trkpt lat="32.95272" lon="78.27125">
        <ele>4556.4</ele>
        <time>2015-09-08T09:18:30Z</time>
      </trkpt>
      <trkpt lat="32.95276" lon="78.27127">
        <ele>4557</ele>
        <time>2015-09-08T09:18:34Z</time>
      </trkpt>
      <trkpt lat="32.95283" lon="78.27128">
        <ele>4555.2</ele>
        <time>2015-09-08T09:18:42Z</time>
      </trkpt>
      <trkpt lat="32.95286" lon="78.27128">
        <ele>4554.2</ele>
        <time>2015-09-08T09:18:46Z</time>
      </trkpt>
      <trkpt lat="32.95296" lon="78.27129">
        <ele>4553.2</ele>
        <time>2015-09-08T09:18:59Z</time>
      </trkpt>
      <trkpt lat="32.95307" lon="78.27129">
        <ele>4552.2</ele>
        <time>2015-09-08T09:19:11Z</time>
      </trkpt>
      <trkpt lat="32.95311" lon="78.27123">
        <ele>4551</ele>
        <time>2015-09-08T09:19:17Z</time>
      </trkpt>
      <trkpt lat="32.95312" lon="78.27122">
        <ele>4550</ele>
        <time>2015-09-08T09:19:25Z</time>
      </trkpt>
      <trkpt lat="32.95314" lon="78.27122">
        <ele>4551</ele>
        <time>2015-09-08T09:19:41Z</time>
      </trkpt>
      <trkpt lat="32.95314" lon="78.27122">
        <ele>4552.2</ele>
        <time>2015-09-08T09:19:59Z</time>
      </trkpt>
      <trkpt lat="32.95314" lon="78.27123">
        <ele>4552.8</ele>
        <time>2015-09-08T09:20:04Z</time>
      </trkpt>
      <trkpt lat="32.95314" lon="78.27123">
        <ele>4550.8</ele>
        <time>2015-09-08T09:20:20Z</time>
      </trkpt>
      <trkpt lat="32.95312" lon="78.27122">
        <ele>4550.2</ele>
        <time>2015-09-08T09:20:30Z</time>
      </trkpt>
      <trkpt lat="32.95314" lon="78.27122">
        <ele>4552</ele>
        <time>2015-09-08T09:21:00Z</time>
      </trkpt>
      <trkpt lat="32.95314" lon="78.27121">
        <ele>4550.8</ele>
        <time>2015-09-08T09:21:08Z</time>
      </trkpt>
      <trkpt lat="32.95314" lon="78.27124">
        <ele>4549.6</ele>
        <time>2015-09-08T09:21:43Z</time>
      </trkpt>
      <trkpt lat="32.95315" lon="78.27122">
        <ele>4551</ele>
        <time>2015-09-08T09:21:59Z</time>
      </trkpt>
      <trkpt lat="32.95317" lon="78.27117">
        <ele>4550.8</ele>
        <time>2015-09-08T09:22:17Z</time>
      </trkpt>
      <trkpt lat="32.95329" lon="78.271">
        <ele>4550.2</ele>
        <time>2015-09-08T09:22:33Z</time>
      </trkpt>
      <trkpt lat="32.95338" lon="78.2708">
        <ele>4551.8</ele>
        <time>2015-09-08T09:22:50Z</time>
      </trkpt>
      <trkpt lat="32.95347" lon="78.27062">
        <ele>4550.8</ele>
        <time>2015-09-08T09:23:06Z</time>
      </trkpt>
      <trkpt lat="32.95362" lon="78.27049">
        <ele>4549.6</ele>
        <time>2015-09-08T09:23:22Z</time>
      </trkpt>
      <trkpt lat="32.95362" lon="78.27038">
        <ele>4551</ele>
        <time>2015-09-08T09:23:30Z</time>
      </trkpt>
      <trkpt lat="32.95358" lon="78.27018">
        <ele>4551</ele>
        <time>2015-09-08T09:23:46Z</time>
      </trkpt>
      <trkpt lat="32.95354" lon="78.26996">
        <ele>4550.4</ele>
        <time>2015-09-08T09:24:02Z</time>
      </trkpt>
      <trkpt lat="32.95354" lon="78.26985">
        <ele>4550</ele>
        <time>2015-09-08T09:24:10Z</time>
      </trkpt>
      <trkpt lat="32.9535" lon="78.26964">
        <ele>4549.4</ele>
        <time>2015-09-08T09:24:26Z</time>
      </trkpt>
      <trkpt lat="32.95354" lon="78.26952">
        <ele>4548.8</ele>
        <time>2015-09-08T09:24:35Z</time>
      </trkpt>
      <trkpt lat="32.95358" lon="78.2693">
        <ele>4548.8</ele>
        <time>2015-09-08T09:24:50Z</time>
      </trkpt>
      <trkpt lat="32.95362" lon="78.26921">
        <ele>4547.8</ele>
        <time>2015-09-08T09:25:00Z</time>
      </trkpt>
      <trkpt lat="32.95364" lon="78.26916">
        <ele>4548</ele>
        <time>2015-09-08T09:25:11Z</time>
      </trkpt>
      <trkpt lat="32.95367" lon="78.26907">
        <ele>4548.8</ele>
        <time>2015-09-08T09:25:17Z</time>
      </trkpt>
      <trkpt lat="32.95375" lon="78.26888">
        <ele>4549</ele>
        <time>2015-09-08T09:25:31Z</time>
      </trkpt>
      <trkpt lat="32.95382" lon="78.26868">
        <ele>4549.4</ele>
        <time>2015-09-08T09:25:46Z</time>
      </trkpt>
      <trkpt lat="32.95391" lon="78.26848">
        <ele>4549.2</ele>
        <time>2015-09-08T09:26:02Z</time>
      </trkpt>
      <trkpt lat="32.95401" lon="78.2683">
        <ele>4549.4</ele>
        <time>2015-09-08T09:26:18Z</time>
      </trkpt>
      <trkpt lat="32.9541" lon="78.2681">
        <ele>4549.2</ele>
        <time>2015-09-08T09:26:33Z</time>
      </trkpt>
      <trkpt lat="32.9542" lon="78.26791">
        <ele>4548.8</ele>
        <time>2015-09-08T09:26:51Z</time>
      </trkpt>
      <trkpt lat="32.95426" lon="78.26783">
        <ele>4548.6</ele>
        <time>2015-09-08T09:27:00Z</time>
      </trkpt>
      <trkpt lat="32.95437" lon="78.26764">
        <ele>4548.4</ele>
        <time>2015-09-08T09:27:18Z</time>
      </trkpt>
      <trkpt lat="32.95456" lon="78.26757">
        <ele>4548.4</ele>
        <time>2015-09-08T09:27:39Z</time>
      </trkpt>
      <trkpt lat="32.95467" lon="78.2674">
        <ele>4549.2</ele>
        <time>2015-09-08T09:27:57Z</time>
      </trkpt>
      <trkpt lat="32.95475" lon="78.26721">
        <ele>4549.6</ele>
        <time>2015-09-08T09:28:12Z</time>
      </trkpt>
      <trkpt lat="32.95478" lon="78.26718">
        <ele>4549.8</ele>
        <time>2015-09-08T09:28:17Z</time>
      </trkpt>
      <trkpt lat="32.9548" lon="78.26715">
        <ele>4550.2</ele>
        <time>2015-09-08T09:28:21Z</time>
      </trkpt>
      <trkpt lat="32.95493" lon="78.26699">
        <ele>4550.8</ele>
        <time>2015-09-08T09:28:39Z</time>
      </trkpt>
      <trkpt lat="32.95495" lon="78.26699">
        <ele>4550.8</ele>
        <time>2015-09-08T09:28:41Z</time>
      </trkpt>
      <trkpt lat="32.95511" lon="78.26687">
        <ele>4550.6</ele>
        <time>2015-09-08T09:28:59Z</time>
      </trkpt>
      <trkpt lat="32.95528" lon="78.2668">
        <ele>4550.8</ele>
        <time>2015-09-08T09:29:16Z</time>
      </trkpt>
      <trkpt lat="32.95533" lon="78.26672">
        <ele>4551</ele>
        <time>2015-09-08T09:29:25Z</time>
      </trkpt>
      <trkpt lat="32.95538" lon="78.26666">
        <ele>4551.8</ele>
        <time>2015-09-08T09:29:34Z</time>
      </trkpt>
      <trkpt lat="32.95539" lon="78.26666">
        <ele>4552</ele>
        <time>2015-09-08T09:29:35Z</time>
      </trkpt>
      <trkpt lat="32.95543" lon="78.26663">
        <ele>4551.8</ele>
        <time>2015-09-08T09:29:40Z</time>
      </trkpt>
      <trkpt lat="32.95545" lon="78.26657">
        <ele>4551</ele>
        <time>2015-09-08T09:29:45Z</time>
      </trkpt>
      <trkpt lat="32.95545" lon="78.26655">
        <ele>4550.8</ele>
        <time>2015-09-08T09:29:46Z</time>
      </trkpt>
      <trkpt lat="32.95557" lon="78.26638">
        <ele>4552</ele>
        <time>2015-09-08T09:30:04Z</time>
      </trkpt>
      <trkpt lat="32.95561" lon="78.26634">
        <ele>4551.8</ele>
        <time>2015-09-08T09:30:09Z</time>
      </trkpt>
      <trkpt lat="32.9556" lon="78.26626">
        <ele>4550</ele>
        <time>2015-09-08T09:30:17Z</time>
      </trkpt>
      <trkpt lat="32.95557" lon="78.26612">
        <ele>4551</ele>
        <time>2015-09-08T09:30:29Z</time>
      </trkpt>
      <trkpt lat="32.95556" lon="78.2661">
        <ele>4551.2</ele>
        <time>2015-09-08T09:30:31Z</time>
      </trkpt>
      <trkpt lat="32.95547" lon="78.26604">
        <ele>4552</ele>
        <time>2015-09-08T09:30:41Z</time>
      </trkpt>
      <trkpt lat="32.95547" lon="78.26604">
        <ele>4552</ele>
        <time>2015-09-08T09:30:42Z</time>
      </trkpt>
      <trkpt lat="32.95551" lon="78.266">
        <ele>4551.2</ele>
        <time>2015-09-08T09:31:01Z</time>
      </trkpt>
    </trkseg>
  </trk>
</gpx>